Time;durP1;ratioP1;P1;durP2;ratioP2;P2;SDS_P1;SDS_P2;PMS_P1;PMS_P2;Temp;Humidity;BMP_temperature;BMP_pressure;BME280_temperature;BME280_humidity;BME280_pressure;Samples;Min_cycle;Max_cycle;Signal;HPM_P1;HPM_P2
2020/12/29 00:00:37;;;;;;;4.30;3.90;;;2.90;78.40;;;;;;5015736;28;20472;-72
2020/12/29 00:03:03;;;;;;;4.50;3.50;;;2.80;79.50;;;;;;5008564;28;20401;-71
2020/12/29 00:05:28;;;;;;;6.93;5.03;;;2.80;80.00;;;;;;5009423;28;20395;-73
2020/12/29 00:07:54;;;;;;;4.80;4.30;;;2.70;80.30;;;;;;5016444;28;20401;-76
2020/12/29 00:10:23;;;;;;;5.28;4.03;;;2.70;81.30;;;;;;5011636;28;20405;-73
2020/12/29 00:12:50;;;;;;;4.22;3.55;;;2.60;82.10;;;;;;5023721;28;20706;-73
2020/12/29 00:15:16;;;;;;;7.57;5.03;;;2.70;81.50;;;;;;5009649;28;20411;-74
2020/12/29 00:17:41;;;;;;;5.55;4.55;;;2.70;82.10;;;;;;4999081;28;20473;-74
2020/12/29 00:20:07;;;;;;;4.90;3.80;;;2.60;81.30;;;;;;5025622;28;20733;-74
2020/12/29 00:22:33;;;;;;;4.53;3.70;;;2.50;81.70;;;;;;5021231;28;20381;-73
2020/12/29 00:24:59;;;;;;;5.53;4.63;;;2.50;82.50;;;;;;5010767;28;20427;-73
2020/12/29 00:27:25;;;;;;;4.82;4.07;;;2.40;82.90;;;;;;5018213;28;20894;-72
2020/12/29 00:29:51;;;;;;;6.10;4.30;;;2.40;83.80;;;;;;5030226;28;20743;-73
2020/12/29 00:32:19;;;;;;;5.10;4.40;;;2.30;83.80;;;;;;5026107;28;20412;-74
2020/12/29 00:34:45;;;;;;;4.60;3.90;;;2.30;84.30;;;;;;5012779;28;20471;-72
2020/12/29 00:37:11;;;;;;;4.70;4.00;;;2.30;84.70;;;;;;5022048;28;20406;-73
2020/12/29 00:39:36;;;;;;;4.00;3.60;;;2.30;85.80;;;;;;5030239;28;20414;-73
2020/12/29 00:42:02;;;;;;;5.93;4.60;;;2.40;85.70;;;;;;5015886;28;20411;-73
2020/12/29 00:44:27;;;;;;;9.40;4.90;;;2.30;85.30;;;;;;5030402;28;20423;-72
2020/12/29 00:46:53;;;;;;;4.83;4.13;;;2.30;86.00;;;;;;5034284;28;20382;-72
2020/12/29 00:49:18;;;;;;;6.17;4.60;;;2.20;86.00;;;;;;5033906;28;20391;-72
2020/12/29 00:51:44;;;;;;;6.70;5.40;;;2.20;86.50;;;;;;5034133;28;20460;-73
2020/12/29 00:54:09;;;;;;;5.73;4.70;;;2.20;86.90;;;;;;5033428;28;20466;-72
2020/12/29 00:56:35;;;;;;;5.37;4.70;;;2.10;87.10;;;;;;5031419;28;20513;-72
2020/12/29 00:59:00;;;;;;;5.90;4.97;;;2.10;87.50;;;;;;5030161;28;20433;-72
2020/12/29 01:01:25;;;;;;;4.80;4.20;;;2.10;87.60;;;;;;5036208;28;20478;-75
2020/12/29 01:03:51;;;;;;;4.82;4.18;;;2.00;87.80;;;;;;5036684;28;20855;-73
2020/12/29 01:06:25;;;;;;;5.90;4.60;;;2.00;87.70;;;;;;5027296;28;20417;-74
2020/12/29 01:08:50;;;;;;;4.65;4.22;;;1.90;88.20;;;;;;5016236;28;20393;-73
2020/12/29 01:11:17;;;;;;;4.73;4.23;;;1.90;88.80;;;;;;5015313;28;20967;-74
2020/12/29 01:13:44;;;;;;;6.60;4.90;;;2.00;89.10;;;;;;5017780;28;20454;-73
2020/12/29 01:16:10;;;;;;;4.95;4.45;;;2.00;89.00;;;;;;5015764;28;20397;-72
2020/12/29 01:18:37;;;;;;;4.90;4.07;;;1.90;89.50;;;;;;4999031;28;20412;-72
2020/12/29 01:21:03;;;;;;;4.88;4.45;;;1.90;89.60;;;;;;5016695;28;20381;-73
2020/12/29 01:23:28;;;;;;;4.43;4.03;;;1.80;89.10;;;;;;5019205;28;20797;-72
2020/12/29 01:25:54;;;;;;;6.23;4.53;;;1.80;88.90;;;;;;5016366;28;20385;-73
2020/12/29 01:28:19;;;;;;;4.90;4.50;;;1.70;89.40;;;;;;5013630;28;20482;-74
2020/12/29 01:30:45;;;;;;;5.50;4.50;;;1.80;89.30;;;;;;5013520;28;20482;-71
2020/12/29 01:33:11;;;;;;;7.03;5.30;;;1.80;89.40;;;;;;5014997;28;20458;-74
2020/12/29 01:35:37;;;;;;;5.85;5.10;;;1.70;89.90;;;;;;5033300;28;20398;-72
2020/12/29 01:38:05;;;;;;;9.80;6.78;;;1.70;90.00;;;;;;5033236;28;20387;-73
2020/12/29 01:40:31;;;;;;;9.07;4.97;;;1.60;89.90;;;;;;5032774;28;20427;-72
2020/12/29 01:42:57;;;;;;;5.00;4.47;;;1.70;91.60;;;;;;5031501;28;20433;-72
2020/12/29 01:45:23;;;;;;;6.15;4.75;;;1.70;90.40;;;;;;5033376;28;20441;-73
2020/12/29 01:47:49;;;;;;;6.37;5.23;;;1.70;90.90;;;;;;5033479;28;20399;-73
2020/12/29 01:50:16;;;;;;;5.20;4.70;;;1.70;90.30;;;;;;5025846;28;20484;-73
2020/12/29 01:52:42;;;;;;;7.50;4.78;;;1.60;90.60;;;;;;5013088;28;20408;-73
2020/12/29 01:55:10;;;;;;;5.40;4.90;;;1.60;90.60;;;;;;5013418;28;20744;-73
2020/12/29 01:57:36;;;;;;;7.22;4.93;;;1.50;90.40;;;;;;4995703;28;20393;-72
2020/12/29 02:00:10;;;;;;;6.57;5.22;;;1.50;90.70;;;;;;5016091;28;20603;-74
2020/12/29 02:02:36;;;;;;;5.15;4.60;;;1.40;91.20;;;;;;5016190;28;20904;-73
2020/12/29 02:05:03;;;;;;;6.82;5.20;;;1.50;91.60;;;;;;5016123;28;20851;-72
2020/12/29 02:07:29;;;;;;;6.03;4.72;;;1.50;92.20;;;;;;5016278;28;20436;-72
2020/12/29 02:09:55;;;;;;;6.65;4.82;;;1.60;92.50;;;;;;5015329;28;20797;-72
2020/12/29 02:12:29;;;;;;;5.82;5.20;;;1.70;92.90;;;;;;5032701;28;20744;-73
2020/12/29 02:14:55;;;;;;;6.38;5.13;;;1.80;93.20;;;;;;5032723;28;20422;-72
2020/12/29 02:17:21;;;;;;;6.32;4.90;;;1.90;93.70;;;;;;5032668;28;20395;-73
2020/12/29 02:19:47;;;;;;;5.22;4.40;;;1.90;93.80;;;;;;5028809;28;20937;-72
2020/12/29 02:22:24;;;;;;;6.13;4.50;;;2.20;95.20;;;;;;5025870;28;20441;-72
2020/12/29 02:24:52;;;;;;;4.60;4.20;;;2.50;92.10;;;;;;5012846;28;20365;-72
2020/12/29 02:27:18;;;;;;;5.60;4.82;;;2.60;90.30;;;;;;5012727;28;20692;-73
2020/12/29 02:29:44;;;;;;;6.18;4.75;;;2.50;89.10;;;;;;5011966;28;20423;-72
2020/12/29 02:32:10;;;;;;;7.10;4.40;;;2.50;89.20;;;;;;5012423;28;20716;-72
2020/12/29 02:34:37;;;;;;;4.63;4.20;;;2.50;89.60;;;;;;5013697;28;20389;-71
2020/12/29 02:37:05;;;;;;;6.63;4.43;;;2.50;89.90;;;;;;5012850;28;20393;-72
2020/12/29 02:39:31;;;;;;;4.55;3.85;;;2.50;89.10;;;;;;5022536;28;20412;-73
2020/12/29 02:41:57;;;;;;;5.80;4.80;;;2.60;88.60;;;;;;5032283;28;20840;-72
2020/12/29 02:44:22;;;;;;;5.65;5.05;;;2.50;88.30;;;;;;5032163;28;20395;-73
2020/12/29 02:46:48;;;;;;;5.65;4.65;;;2.50;88.60;;;;;;5032867;28;20396;-72
2020/12/29 02:49:15;;;;;;;5.38;4.40;;;2.60;88.50;;;;;;5029842;28;20399;-73
2020/12/29 02:51:41;;;;;;;4.00;3.60;;;2.60;87.90;;;;;;5032123;28;20392;-72
2020/12/29 02:54:06;;;;;;;4.28;3.80;;;2.70;87.50;;;;;;5031791;28;20387;-72
2020/12/29 02:56:32;;;;;;;3.83;3.53;;;2.90;85.60;;;;;;5032033;28;20379;-73
2020/12/29 02:58:57;;;;;;;7.90;4.70;;;3.00;79.90;;;;;;5027884;28;20421;-73
2020/12/29 03:01:27;;;;;;;5.43;4.50;;;2.90;79.70;;;;;;5031913;28;20868;-74
2020/12/29 03:03:54;;;;;;;5.65;3.50;;;2.70;80.20;;;;;;5030950;28;20386;-72
2020/12/29 03:06:19;;;;;;;5.38;3.90;;;2.70;80.30;;;;;;5026060;28;20389;-73
2020/12/29 03:08:45;;;;;;;5.43;3.47;;;2.60;80.00;;;;;;5014851;28;20395;-73
2020/12/29 03:11:10;;;;;;;5.07;3.50;;;2.50;80.80;;;;;;5031749;28;20799;-73
2020/12/29 03:13:36;;;;;;;5.80;3.30;;;2.40;80.50;;;;;;5031502;28;20448;-73
2020/12/29 03:16:01;;;;;;;4.30;3.50;;;2.20;81.10;;;;;;5031271;28;20379;-73
2020/12/29 03:18:27;;;;;;;4.03;3.63;;;2.10;82.10;;;;;;5027799;28;20416;-73
2020/12/29 03:20:52;;;;;;;7.50;5.20;;;2.10;82.90;;;;;;5031156;28;20418;-72
2020/12/29 03:23:18;;;;;;;7.57;5.50;;;2.00;83.20;;;;;;5016200;28;20874;-73
2020/12/29 03:25:43;;;;;;;5.37;4.00;;;1.90;83.50;;;;;;5012113;28;20389;-73
2020/12/29 03:28:09;;;;;;;4.30;3.90;;;1.80;84.50;;;;;;4994168;28;20385;-71
2020/12/29 03:30:34;;;;;;;4.20;3.80;;;1.90;85.60;;;;;;5028725;28;20414;-73
2020/12/29 03:33:00;;;;;;;5.20;3.60;;;1.90;85.80;;;;;;5021423;28;20427;-73
2020/12/29 03:35:25;;;;;;;5.00;3.50;;;2.10;83.70;;;;;;4995689;28;20392;-73
2020/12/29 03:37:51;;;;;;;6.10;4.20;;;2.10;83.20;;;;;;5012282;28;20866;-72
2020/12/29 03:40:16;;;;;;;5.40;3.97;;;1.90;82.00;;;;;;5014137;28;20420;-72
2020/12/29 03:42:42;;;;;;;6.97;4.60;;;1.70;82.40;;;;;;5012287;28;20400;-72
2020/12/29 03:45:07;;;;;;;5.33;4.50;;;1.60;83.70;;;;;;5012503;28;20399;-72
2020/12/29 03:47:33;;;;;;;6.22;4.45;;;1.60;85.20;;;;;;5012654;28;20396;-72
2020/12/29 03:49:58;;;;;;;7.20;4.72;;;1.60;86.20;;;;;;5024592;28;20792;-72
2020/12/29 03:52:24;;;;;;;5.68;4.80;;;1.50;86.20;;;;;;5036009;28;20403;-73
2020/12/29 03:54:49;;;;;;;12.50;5.85;;;1.50;87.00;;;;;;5036456;28;20387;-73
2020/12/29 03:57:15;;;;;;;7.20;5.77;;;1.40;86.70;;;;;;5036297;28;20472;-73
2020/12/29 03:59:40;;;;;;;8.77;5.60;;;1.30;87.00;;;;;;5032105;28;20498;-73
2020/12/29 04:02:09;;;;;;;9.40;5.10;;;1.20;87.60;;;;;;5036429;28;20491;-74
2020/12/29 04:04:36;;;;;;;8.07;5.10;;;1.20;88.20;;;;;;5036788;28;20387;-72
2020/12/29 04:07:02;;;;;;;8.25;5.15;;;1.10;89.00;;;;;;5025366;28;20747;-71
2020/12/29 04:09:31;;;;;;;7.90;5.20;;;1.10;89.30;;;;;;5024081;28;20407;-73
2020/12/29 04:11:57;;;;;;;11.50;6.67;;;1.30;90.10;;;;;;5028161;28;20423;-74
2020/12/29 04:14:23;;;;;;;13.00;5.90;;;1.20;89.40;;;;;;5030321;28;20894;-72
2020/12/29 04:16:49;;;;;;;11.93;6.23;;;1.20;89.30;;;;;;5030586;28;20398;-72
2020/12/29 04:19:15;;;;;;;7.97;4.97;;;1.10;89.20;;;;;;5026554;28;20407;-73
2020/12/29 04:21:40;;;;;;;6.60;4.70;;;1.10;89.80;;;;;;5028518;28;20501;-72
2020/12/29 04:24:06;;;;;;;7.60;4.70;;;1.20;90.10;;;;;;5011339;28;20388;-72
2020/12/29 04:26:34;;;;;;;7.78;5.00;;;1.10;89.40;;;;;;5011128;28;20389;-73
2020/12/29 04:28:59;;;;;;;10.57;5.50;;;1.10;89.70;;;;;;5013747;28;20418;-73
2020/12/29 04:31:25;;;;;;;10.33;6.97;;;1.00;89.60;;;;;;5030870;28;20883;-74
2020/12/29 04:33:51;;;;;;;9.20;5.07;;;0.90;90.00;;;;;;5013363;28;20435;-73
2020/12/29 04:36:16;;;;;;;9.02;5.05;;;0.90;90.30;;;;;;5010861;28;20866;-72
2020/12/29 04:38:42;;;;;;;6.03;4.80;;;0.80;90.30;;;;;;5013067;28;20410;-73
2020/12/29 04:41:07;;;;;;;8.70;4.40;;;0.90;90.70;;;;;;5011259;28;20389;-73
2020/12/29 04:43:33;;;;;;;8.27;5.80;;;0.80;90.40;;;;;;5011186;28;20393;-71
2020/12/29 04:46:01;;;;;;;9.02;4.20;;;0.80;90.90;;;;;;5011195;28;20419;-72
2020/12/29 04:48:27;;;;;;;7.80;4.40;;;0.80;91.80;;;;;;5011020;28;20511;-72
2020/12/29 04:51:00;;;;;;;6.68;4.28;;;1.00;92.50;;;;;;5028881;28;20407;-72
2020/12/29 04:53:29;;;;;;;8.32;4.75;;;1.10;90.60;;;;;;5030230;28;20760;-72
2020/12/29 04:56:00;;;;;;;6.15;3.50;;;1.00;89.80;;;;;;5029961;28;20397;-72
2020/12/29 04:58:28;;;;;;;9.55;4.55;;;1.00;91.10;;;;;;5028883;28;20387;-73
2020/12/29 05:00:54;;;;;;;4.88;3.70;;;1.00;89.90;;;;;;5028281;28;20418;-73
2020/12/29 05:03:19;;;;;;;8.68;4.07;;;0.90;90.00;;;;;;5030116;28;20402;-73
2020/12/29 05:05:45;;;;;;;6.00;3.53;;;0.90;89.80;;;;;;5029081;28;20406;-72
2020/12/29 05:08:10;;;;;;;8.30;4.37;;;0.80;90.30;;;;;;5010236;28;20384;-72
2020/12/29 05:10:46;;;;;;;7.93;4.57;;;0.90;90.20;;;;;;5025813;28;20399;-73
2020/12/29 05:13:12;;;;;;;8.05;4.70;;;0.80;90.20;;;;;;5029886;28;20783;-73
2020/12/29 05:15:37;;;;;;;8.50;4.73;;;0.70;91.00;;;;;;5031309;28;20383;-73
2020/12/29 05:18:03;;;;;;;8.07;5.00;;;0.70;91.50;;;;;;5034213;28;20378;-73
2020/12/29 05:20:33;;;;;;;9.90;5.23;;;0.70;92.20;;;;;;5027784;28;20442;-72
2020/12/29 05:22:59;;;;;;;10.30;5.22;;;0.70;92.10;;;;;;5017963;28;20455;-73
2020/12/29 05:25:25;;;;;;;7.10;4.65;;;0.70;91.30;;;;;;5010244;28;20384;-73
2020/12/29 05:27:51;;;;;;;11.83;5.40;;;0.80;91.80;;;;;;5012658;28;20738;-74
2020/12/29 05:30:17;;;;;;;9.82;5.47;;;0.80;92.40;;;;;;5012898;28;20870;-74
2020/12/29 05:32:43;;;;;;;8.60;5.40;;;0.70;90.80;;;;;;5012743;28;20524;-74
2020/12/29 05:35:13;;;;;;;8.77;5.10;;;0.60;90.30;;;;;;5014177;28;20772;-73
2020/12/29 05:37:42;;;;;;;11.27;5.90;;;0.60;90.90;;;;;;5015710;28;20389;-73
2020/12/29 05:40:28;;;;;;;8.05;5.50;;;0.40;91.00;;;;;;5016350;28;20460;-74
2020/12/29 05:42:59;;;;;;;10.05;6.10;;;0.50;92.20;;;;;;5013225;28;20397;-74
2020/12/29 05:45:26;;;;;;;8.75;5.50;;;0.40;92.00;;;;;;5013258;28;20454;-73
2020/12/29 05:47:54;;;;;;;8.93;5.40;;;0.50;92.50;;;;;;5014205;28;20396;-74
2020/12/29 05:50:20;;;;;;;9.07;5.57;;;0.50;91.80;;;;;;5027215;28;20391;-73
2020/12/29 05:52:54;;;;;;;9.45;6.15;;;0.50;91.90;;;;;;5035137;28;20423;-73
2020/12/29 05:55:22;;;;;;;7.40;5.45;;;0.50;91.90;;;;;;5034936;28;20430;-74
2020/12/29 05:58:05;;;;;;;10.93;5.30;;;0.60;93.10;;;;;;5034640;28;20445;-73
2020/12/29 06:00:31;;;;;;;11.65;6.50;;;0.70;91.00;;;;;;5030937;28;20414;-74
2020/12/29 06:02:58;;;;;;;11.70;6.80;;;0.60;90.40;;;;;;5035173;28;20380;-72
2020/12/29 06:05:25;;;;;;;11.52;6.60;;;0.60;90.90;;;;;;5034760;28;20436;-75
2020/12/29 06:07:54;;;;;;;13.00;7.10;;;0.50;91.00;;;;;;5015936;28;20472;-73
2020/12/29 06:10:21;;;;;;;13.18;7.75;;;0.50;91.50;;;;;;5022963;28;20402;-73
2020/12/29 06:12:51;;;;;;;10.70;6.65;;;0.50;92.20;;;;;;5032624;28;20397;-73
2020/12/29 06:15:24;;;;;;;11.38;5.82;;;0.50;92.70;;;;;;5032595;28;20605;-73
2020/12/29 06:17:58;;;;;;;10.88;5.90;;;0.50;93.20;;;;;;5032414;28;20445;-73
2020/12/29 06:20:30;;;;;;;10.05;6.15;;;0.60;92.80;;;;;;5028544;28;20399;-72
2020/12/29 06:23:00;;;;;;;12.02;5.95;;;0.70;92.70;;;;;;5020001;28;20383;-73
2020/12/29 06:25:31;;;;;;;11.75;7.00;;;0.50;92.30;;;;;;5012721;28;20479;-73
2020/12/29 06:28:00;;;;;;;9.13;6.45;;;0.50;93.00;;;;;;5018206;28;20574;-73
2020/12/29 06:30:25;;;;;;;11.20;6.50;;;0.50;92.90;;;;;;5036022;28;20391;-73
2020/12/29 06:32:53;;;;;;;13.05;7.50;;;0.50;93.70;;;;;;5027530;28;20420;-74
2020/12/29 06:35:19;;;;;;;15.55;9.30;;;0.60;93.40;;;;;;4997979;28;20392;-74
2020/12/29 06:38:11;;;;;;;9.90;7.10;;;0.60;93.90;;;;;;5015433;28;20406;-73
2020/12/29 06:40:38;;;;;;;13.27;8.50;;;0.70;94.90;;;;;;5031153;28;20406;-75
2020/12/29 06:43:08;;;;;;;12.83;7.37;;;1.00;94.30;;;;;;5031611;28;20476;-73
2020/12/29 06:45:35;;;;;;;11.43;7.07;;;1.30;94.50;;;;;;5033702;28;20478;-73
2020/12/29 06:48:01;;;;;;;12.80;7.40;;;1.20;91.20;;;;;;5032642;28;20391;-73
2020/12/29 06:50:31;;;;;;;11.00;8.20;;;1.20;92.30;;;;;;5035956;28;20751;-73
2020/12/29 06:53:01;;;;;;;13.48;8.60;;;1.20;91.20;;;;;;5035757;28;20398;-72
2020/12/29 06:55:48;;;;;;;11.32;8.27;;;1.20;91.50;;;;;;5035867;28;20398;-73
2020/12/29 06:58:34;;;;;;;15.10;9.38;;;1.10;92.20;;;;;;5031686;28;20410;-72
2020/12/29 07:01:26;;;;;;;15.95;9.82;;;1.00;92.60;;;;;;5031442;28;20435;-73
2020/12/29 07:04:06;;;;;;;12.63;9.17;;;1.00;93.00;;;;;;5031536;28;20456;-73
2020/12/29 07:06:36;;;;;;;14.70;9.15;;;0.90;93.20;;;;;;5023716;28;20472;-73
2020/12/29 07:09:07;;;;;;;14.52;9.30;;;0.90;93.40;;;;;;5012408;28;20829;-73
2020/12/29 07:11:34;;;;;;;16.80;8.82;;;0.90;94.00;;;;;;5011615;28;20722;-74
2020/12/29 07:14:03;;;;;;;17.13;10.55;;;0.90;94.30;;;;;;5011992;28;20393;-70
2020/12/29 07:16:29;;;;;;;14.18;9.20;;;0.90;94.60;;;;;;5016059;28;20393;-71
2020/12/29 07:19:11;;;;;;;15.37;9.27;;;0.90;94.80;;;;;;5030432;28;20537;-74
2020/12/29 07:21:38;;;;;;;18.42;12.02;;;0.90;95.30;;;;;;5033540;28;20394;-74
2020/12/29 07:24:07;;;;;;;15.88;9.90;;;0.90;95.50;;;;;;5011665;28;20888;-73
2020/12/29 07:26:37;;;;;;;13.77;9.27;;;1.00;96.00;;;;;;5011782;28;20801;-73
2020/12/29 07:29:06;;;;;;;15.35;10.57;;;1.10;96.10;;;;;;5023805;28;20741;-75
2020/12/29 07:31:38;;;;;;;18.60;11.15;;;1.20;95.60;;;;;;5030954;28;20422;-74
2020/12/29 07:34:04;;;;;;;20.00;12.40;;;1.20;95.90;;;;;;5011859;28;20403;-74
2020/12/29 07:36:31;;;;;;;19.07;11.50;;;1.20;96.00;;;;;;5011238;28;20471;-72
2020/12/29 07:38:59;;;;;;;15.70;10.90;;;1.60;96.40;;;;;;5022019;28;20733;-73
2020/12/29 07:41:24;;;;;;;24.38;13.35;;;1.70;94.30;;;;;;5030837;28;20445;-74
2020/12/29 07:43:50;;;;;;;21.42;12.27;;;2.00;94.40;;;;;;5030712;28;20379;-73
2020/12/29 07:46:15;;;;;;;89.55;47.78;;;2.20;91.10;;;;;;5030480;28;20864;-74
2020/12/29 07:48:41;;;;;;;28.08;17.38;;;2.40;89.70;;;;;;5026929;28;20950;-72
2020/12/29 07:51:07;;;;;;;62.77;37.07;;;2.60;87.40;;;;;;5030433;28;20412;-74
2020/12/29 07:53:32;;;;;;;85.72;45.47;;;2.70;87.20;;;;;;5030978;28;20449;-74
2020/12/29 07:55:59;;;;;;;44.65;24.67;;;2.80;86.10;;;;;;5026691;28;20401;-74
2020/12/29 07:58:25;;;;;;;62.42;30.88;;;3.00;85.20;;;;;;5011283;28;20442;-73
2020/12/29 08:00:51;;;;;;;131.95;66.35;;;2.90;82.50;;;;;;5009906;28;20424;-74
2020/12/29 08:03:18;;;;;;;27.13;15.95;;;3.10;83.70;;;;;;5010870;28;20727;-74
2020/12/29 08:05:44;;;;;;;37.27;17.93;;;3.20;79.90;;;;;;5008893;28;20468;-74
2020/12/29 08:08:10;;;;;;;62.92;31.73;;;3.30;81.60;;;;;;5012982;28;20473;-72
2020/12/29 08:10:41;;;;;;;23.10;13.48;;;3.40;81.70;;;;;;5010509;28;20822;-73
2020/12/29 08:13:09;;;;;;;28.90;17.77;;;3.60;78.40;;;;;;5016284;28;20406;-73
2020/12/29 08:15:37;;;;;;;17.85;10.25;;;3.60;77.40;;;;;;5027129;28;20399;-72
2020/12/29 08:18:04;;;;;;;20.10;11.40;;;3.60;76.50;;;;;;5025203;28;20432;-73
2020/12/29 08:20:30;;;;;;;16.92;10.60;;;3.70;72.50;;;;;;5010602;28;20770;-72
2020/12/29 08:23:01;;;;;;;21.17;10.18;;;3.70;72.40;;;;;;5013733;28;20391;-71
2020/12/29 08:25:30;;;;;;;15.40;9.98;;;3.60;71.30;;;;;;5027221;28;20738;-74
2020/12/29 08:27:57;;;;;;;17.38;9.65;;;3.70;70.80;;;;;;5027062;28;20397;-73
2020/12/29 08:30:24;;;;;;;15.45;9.48;;;3.60;69.00;;;;;;4992779;28;20500;-72
2020/12/29 08:32:53;;;;;;;20.33;10.50;;;3.60;69.10;;;;;;5014037;28;20752;-73
2020/12/29 08:35:19;;;;;;;16.98;10.35;;;3.60;67.30;;;;;;5010079;28;20805;-73
2020/12/29 08:38:25;;;;;;;16.35;9.57;;;3.60;67.00;;;;;;5021399;28;20408;-72
2020/12/29 08:41:13;;;;;;;14.00;9.25;;;3.50;68.50;;;;;;4968085;28;20465;-72
2020/12/29 08:43:44;;;;;;;16.67;10.38;;;3.70;68.70;;;;;;5026927;28;20402;-72
2020/12/29 08:46:11;;;;;;;19.55;10.57;;;3.60;67.60;;;;;;5026634;28;20399;-74
2020/12/29 08:48:37;;;;;;;21.48;9.95;;;3.70;68.60;;;;;;5012494;28;20405;-70
2020/12/29 08:51:20;;;;;;;16.37;10.13;;;3.60;68.60;;;;;;5010064;28;20488;-73
2020/12/29 08:53:45;;;;;;;17.00;10.40;;;3.60;69.20;;;;;;5010470;28;20392;-72
2020/12/29 08:56:24;;;;;;;19.63;10.90;;;3.60;68.60;;;;;;5019667;28;20383;-73
2020/12/29 08:58:49;;;;;;;20.23;11.00;;;3.60;69.00;;;;;;5030212;28;20423;-73
2020/12/29 09:01:38;;;;;;;15.55;10.90;;;3.40;68.70;;;;;;5020999;28;20431;-73
2020/12/29 09:04:30;;;;;;;17.50;11.33;;;3.40;69.30;;;;;;5014347;28;20407;-75
2020/12/29 09:07:07;;;;;;;21.35;13.43;;;3.20;70.30;;;;;;5010131;28;20408;-73
2020/12/29 09:09:52;;;;;;;18.80;11.97;;;3.20;71.80;;;;;;5027539;28;20395;-75
2020/12/29 09:12:19;;;;;;;20.23;11.05;;;3.20;73.10;;;;;;5033844;28;20387;-74
2020/12/29 09:14:51;;;;;;;21.27;13.55;;;3.30;72.60;;;;;;5033396;28;20457;-74
2020/12/29 09:17:17;;;;;;;19.73;12.40;;;3.50;72.80;;;;;;5029710;28;20947;-73
2020/12/29 09:20:03;;;;;;;17.42;11.68;;;3.60;71.70;;;;;;5032424;28;20481;-74
2020/12/29 09:22:28;;;;;;;19.13;11.20;;;3.70;70.50;;;;;;5013051;28;20469;-74
2020/12/29 09:24:54;;;;;;;15.40;10.80;;;3.90;70.60;;;;;;5028544;28;20478;-74
2020/12/29 09:27:27;;;;;;;15.47;10.50;;;4.20;68.80;;;;;;5032476;28;20486;-74
2020/12/29 09:29:53;;;;;;;15.68;10.88;;;4.30;68.30;;;;;;5017969;28;20432;-73
2020/12/29 09:32:18;;;;;;;19.80;9.20;;;4.60;64.10;;;;;;5014520;28;20467;-73
2020/12/29 09:34:45;;;;;;;16.30;9.40;;;4.80;62.20;;;;;;5013680;28;20388;-73
2020/12/29 09:37:11;;;;;;;12.00;8.02;;;5.00;61.20;;;;;;5005552;28;20810;-77
2020/12/29 09:39:36;;;;;;;14.73;8.43;;;5.10;59.40;;;;;;5013570;28;20416;-76
2020/12/29 09:42:01;;;;;;;15.37;8.43;;;5.20;57.90;;;;;;5016273;28;20397;-74
2020/12/29 09:44:27;;;;;;;16.70;8.90;;;5.20;57.60;;;;;;5033526;28;20391;-75
2020/12/29 09:46:52;;;;;;;12.60;8.37;;;5.20;57.70;;;;;;5027750;28;20403;-76
2020/12/29 09:49:18;;;;;;;17.83;9.70;;;5.20;57.90;;;;;;5012003;28;20798;-74
2020/12/29 09:51:43;;;;;;;17.23;8.60;;;5.20;58.50;;;;;;5013093;28;20401;-75
2020/12/29 09:54:09;;;;;;;18.00;9.60;;;5.10;58.80;;;;;;5031120;28;20403;-75
2020/12/29 09:56:34;;;;;;;17.07;9.33;;;5.30;57.80;;;;;;5003191;28;20896;-76
2020/12/29 09:59:00;;;;;;;20.33;9.53;;;5.20;57.80;;;;;;5014901;28;20440;-75
2020/12/29 10:01:25;;;;;;;18.43;10.00;;;5.20;59.10;;;;;;5020851;28;20471;-74
2020/12/29 10:03:51;;;;;;;20.70;10.93;;;5.20;58.70;;;;;;5031825;28;20387;-75
2020/12/29 10:06:17;;;;;;;23.33;10.43;;;5.10;60.00;;;;;;5015019;28;20822;-74
2020/12/29 10:08:42;;;;;;;21.58;10.20;;;5.10;59.50;;;;;;5012829;28;20388;-74
2020/12/29 10:11:11;;;;;;;20.08;10.75;;;5.10;59.80;;;;;;5030590;28;20403;-75
2020/12/29 10:13:36;;;;;;;21.38;11.38;;;5.20;59.90;;;;;;5032023;28;20743;-74
2020/12/29 10:16:02;;;;;;;22.38;10.95;;;5.20;59.70;;;;;;5017060;28;20397;-75
2020/12/29 10:18:28;;;;;;;18.40;11.27;;;5.10;60.40;;;;;;5012515;28;20447;-74
2020/12/29 10:20:54;;;;;;;22.63;11.23;;;5.10;60.80;;;;;;5027705;28;20965;-75
2020/12/29 10:23:19;;;;;;;24.55;11.10;;;5.20;59.50;;;;;;5016689;28;20401;-75
2020/12/29 10:25:46;;;;;;;21.27;11.13;;;5.30;59.00;;;;;;5025233;28;20404;-75
2020/12/29 10:28:12;;;;;;;19.77;10.98;;;5.40;59.20;;;;;;5007531;28;20815;-75
2020/12/29 10:30:37;;;;;;;22.67;11.90;;;5.50;57.80;;;;;;5015799;28;20397;-74
2020/12/29 10:33:03;;;;;;;22.67;11.63;;;5.50;57.40;;;;;;5012815;28;20453;-75
2020/12/29 10:35:28;;;;;;;21.27;11.80;;;5.60;56.50;;;;;;5026479;28;20438;-74
2020/12/29 10:37:54;;;;;;;23.47;12.03;;;5.50;56.70;;;;;;5027088;28;20478;-75
2020/12/29 10:40:19;;;;;;;27.23;13.37;;;5.50;57.40;;;;;;5016806;28;20434;-75
2020/12/29 10:42:45;;;;;;;22.73;13.47;;;5.50;58.20;;;;;;5020473;28;20399;-75
2020/12/29 10:45:10;;;;;;;27.13;13.83;;;5.40;58.80;;;;;;5031266;28;20469;-74
2020/12/29 10:47:36;;;;;;;24.63;14.77;;;5.30;59.80;;;;;;5016994;28;20888;-77
2020/12/29 10:50:02;;;;;;;27.50;15.30;;;5.40;60.40;;;;;;5031756;28;20383;-75
2020/12/29 10:52:27;;;;;;;27.13;14.90;;;5.40;60.40;;;;;;5028971;28;20401;-74
2020/12/29 10:54:53;;;;;;;25.40;14.75;;;5.50;59.50;;;;;;5012099;28;20396;-76
2020/12/29 10:57:19;;;;;;;27.90;15.73;;;5.60;59.50;;;;;;5013239;28;20393;-74
2020/12/29 10:59:44;;;;;;;28.48;16.88;;;5.60;60.00;;;;;;5021372;28;20404;-75
2020/12/29 11:02:10;;;;;;;27.27;16.37;;;5.50;60.10;;;;;;5010236;28;20882;-74
2020/12/29 11:04:36;;;;;;;33.47;17.10;;;5.50;60.90;;;;;;5004617;28;20462;-75
2020/12/29 11:07:01;;;;;;;29.50;16.33;;;5.60;59.20;;;;;;5023116;28;20403;-75
2020/12/29 11:09:27;;;;;;;28.60;17.37;;;5.70;59.00;;;;;;5038793;28;20411;-75
2020/12/29 11:11:52;;;;;;;29.60;17.58;;;5.60;59.50;;;;;;5035602;28;20391;-75
2020/12/29 11:14:18;;;;;;;33.03;17.60;;;5.60;59.80;;;;;;5021887;28;20411;-74
2020/12/29 11:16:50;;;;;;;36.30;18.10;;;5.60;59.50;;;;;;5037844;28;20802;-74
2020/12/29 11:19:16;;;;;;;34.73;18.83;;;5.80;58.50;;;;;;5016123;28;20597;-74
2020/12/29 11:21:44;;;;;;;33.72;18.60;;;5.80;58.40;;;;;;5022476;28;20813;-73
2020/12/29 11:24:10;;;;;;;33.90;19.70;;;5.80;58.50;;;;;;5012265;28;20447;-73
2020/12/29 11:26:35;;;;;;;31.77;18.80;;;5.70;59.80;;;;;;5015193;28;20392;-73
2020/12/29 11:29:01;;;;;;;38.83;19.60;;;5.80;58.70;;;;;;5010668;28;20944;-74
2020/12/29 11:31:27;;;;;;;33.60;20.47;;;5.80;59.40;;;;;;5011061;28;20397;-72
2020/12/29 11:33:52;;;;;;;35.05;20.20;;;5.80;58.90;;;;;;5007410;28;20858;-72
2020/12/29 11:36:19;;;;;;;35.73;20.93;;;5.90;58.00;;;;;;5009846;28;20746;-73
2020/12/29 11:38:45;;;;;;;35.83;20.75;;;5.90;58.00;;;;;;5011069;28;20793;-71
2020/12/29 11:41:11;;;;;;;35.78;20.20;;;5.90;58.90;;;;;;5010169;28;20420;-72
2020/12/29 11:43:38;;;;;;;36.33;21.10;;;5.90;57.80;;;;;;5012860;28;20389;-72
2020/12/29 11:46:04;;;;;;;37.40;21.83;;;6.00;57.50;;;;;;5016574;28;20408;-72
2020/12/29 11:48:31;;;;;;;36.28;20.95;;;6.00;57.20;;;;;;5015945;28;20407;-72
2020/12/29 11:50:57;;;;;;;36.00;20.55;;;6.10;57.80;;;;;;5015728;28;20406;-72
2020/12/29 11:53:22;;;;;;;37.38;20.80;;;6.20;56.80;;;;;;5016577;28;20419;-72
2020/12/29 11:55:48;;;;;;;34.15;19.65;;;6.40;55.20;;;;;;5002341;28;20757;-71
2020/12/29 11:58:13;;;;;;;29.98;18.60;;;6.60;53.00;;;;;;5018287;28;20384;-72
2020/12/29 12:00:39;;;;;;;31.48;18.83;;;6.80;51.60;;;;;;5017628;28;20424;-71
2020/12/29 12:03:04;;;;;;;33.00;18.73;;;6.80;50.40;;;;;;5035646;28;20395;-70
2020/12/29 12:05:30;;;;;;;31.65;19.02;;;6.80;50.40;;;;;;4999135;28;20411;-72
2020/12/29 12:07:55;;;;;;;35.75;19.58;;;6.80;50.60;;;;;;5014013;28;20480;-74
2020/12/29 12:10:21;;;;;;;32.42;18.60;;;6.70;50.50;;;;;;5013978;28;20878;-73
2020/12/29 12:12:46;;;;;;;34.53;18.93;;;6.80;51.30;;;;;;5015964;28;20560;-73
2020/12/29 12:15:12;;;;;;;30.33;17.60;;;6.70;51.50;;;;;;5009091;28;20507;-73
2020/12/29 12:17:38;;;;;;;22.50;14.70;;;6.70;50.90;;;;;;5034682;28;20426;-74
2020/12/29 12:20:04;;;;;;;24.67;16.10;;;6.70;48.60;;;;;;5022338;28;20766;-73
2020/12/29 12:22:29;;;;;;;25.27;16.15;;;6.70;49.40;;;;;;5015974;28;20881;-74
2020/12/29 12:24:55;;;;;;;29.87;16.33;;;6.60;50.30;;;;;;5014641;28;20487;-73
2020/12/29 12:27:20;;;;;;;25.00;14.33;;;6.80;50.00;;;;;;5013489;28;20453;-73
2020/12/29 12:29:46;;;;;;;25.80;14.00;;;6.90;47.10;;;;;;5013580;28;20809;-73
2020/12/29 12:32:12;;;;;;;26.67;14.57;;;7.00;46.60;;;;;;5016685;28;20400;-73
2020/12/29 12:34:37;;;;;;;22.87;14.10;;;7.10;47.00;;;;;;4997061;28;20731;-72
2020/12/29 12:37:04;;;;;;;25.67;14.70;;;7.20;46.20;;;;;;5016690;28;20404;-74
2020/12/29 12:39:29;;;;;;;26.83;14.43;;;7.10;46.10;;;;;;5032420;28;20422;-74
2020/12/29 12:41:55;;;;;;;22.30;13.70;;;7.10;45.50;;;;;;5023001;28;20487;-73
2020/12/29 12:44:20;;;;;;;25.80;13.63;;;7.10;44.30;;;;;;5029037;28;20464;-73
2020/12/29 12:46:46;;;;;;;21.50;13.77;;;6.90;46.60;;;;;;5033759;28;20441;-74
2020/12/29 12:49:12;;;;;;;22.73;14.07;;;7.00;45.80;;;;;;5020266;28;20412;-72